Bundaberg Aerodrome, Australia
Current Conditions -  °F | °C
As of 7:00 AM on Monday 24 Nov 2014 (Local Time) from YBUD Reporting Station
Broken Clouds Broken Clouds  
Wind Chill: 81°   Ceiling: 2200
Heat Index: 83°   Visibility: 6mi
Dew Point: 68°   Wind: 8mph
Humidity: 65%   Direction: 30°NNE
Pressure: 30.03"   Gusts: NA
Location:  24.9°S, 152.32°E
Report Text: YBUD 232100Z AUTO 03007KT 360V060 9999 // BKN022 27/20 Q1017
Loading
Personal Weather Stations






























Interactive Weather Map New forecast layout! Learn more

10-Day Weather Forecast

Advertisements
Track Severe Weather on mobile